Архив погоды в Астраханке

Метеограмма Астраханка
Пятница, 23 Июня
Время местн. Темп Ветер Видим Явления Облачность нижн/средн/верх Атм. давл. Влжн Точка росы ВНГО R Сост. почвы Tg s
Напр Скр Прв ур.ст ур.м изм
19:00 +28.4° Ю,Ю-З 3 - 20 км - облачно с прояснениями 746 752 -0.8 53% +17.8° 1 км 0 - - -
16:00 +30.1° Ю 2 - 20 км - переменная облачность 746 753 -1.4 51% +19° 1 км - - - -
13:00 +27.7° Ю 3 - 20 км - переменная облачность 748 754 -1.1 56% +18.2° более 2.5 км - - - -
10:00 +24.7° Ю 2 - 20 км - облачно с прояснениями 749 756 +0.1 68% +18.3° более 2.5 км - - - -
07:00 +16.2° Ю-З 3 - 20 км - переменная облачность 749 756 0 91% +14.7° более 2.5 км 0 Сухая (без трещин) +14° -
04:00 +15° З,Ю-З 2 - 20 км - переменная облачность 749 756 -0.3 94% +14° более 2.5 км - - - -
01:00 +18.7° З 2 - 20 км - ясно 749 756 +0.5 82% +15.5° более 2.5 км - - - -
Четверг, 22 Июня
Время местн. Темп Ветер Видим Явления Облачность нижн/средн/верх Атм. давл. Влжн Точка росы ВНГО R Сост. почвы Tg s
Напр Скр Прв ур.ст ур.м изм
22:00 +19.6° З,Ю-З 2 - 20 км - незначительная облачность 749 755 +0.7 87% +17.4° более 2.5 км - - - -
19:00 +22.9° В,Ю-В 1 - 20 км - переменная облачность 748 755 -0.1 65% +15.9° 1.5 км 0 - - -
16:00 +21.7° В 3 - 20 км - переменная облачность 748 755 -0.6 74% +16.8° 1 км - - - -
13:00 +20.4° В,С-В 3 - 20 км - облачно с прояснениями 749 755 -0.1 79% +16.6° 1 км - - - -
10:00 +19.5° С 1 - 20 км - переменная облачность 749 755 +0.2 79% +15.7° 1.5 км - - - -
07:00 +12.5° Ю,Ю-З 3 - 20 км - облачно 748 755 +0.9 95% +11.7° более 2.5 км 0 Сухая (без трещин) +13° -
04:00 +12.3° Ю-З 4 - 20 км - переменная облачность 747 754 +0.2 94% +11.4° 1 км - - - -
01:00 +13.7° Ю 3 - 20 км - переменная облачность 747 754 -0.1 91% +12.3° более 2.5 км - - - -
Среда, 21 Июня
Время местн. Темп Ветер Видим Явления Облачность нижн/средн/верх Атм. давл. Влжн Точка росы ВНГО R Сост. почвы Tg s
Напр Скр Прв ур.ст ур.м изм
22:00 +15.2° Ю,Ю-З 3 - 20 км - облачно 747 754 +1 84% +12.6° 1 км - - - -
19:00 +19.5° Ю 4 - 20 км - переменная облачность 746 753 -0.1 71% +14.1° более 2.5 км 0 - - -
16:00 +21.6° Ю 4 11 20 км - облачно с прояснениями 747 753 -1.4 71% +16.1° 600 м - - - -
13:00 +20.1° Ю,Ю-З 6 11 20 км - облачно с прояснениями 748 755 -0.3 74% +15.3° 600 м - - - -
10:00 +19.2° Ю 5 - 20 км - преимущественно облачно 748 755 -0.3 76% +14.9° 600 м - - - -
07:00 +15.6° Ю,Ю-З 3 - 10 км - облачно 749 755 +0.7 91% +14.2° 600 м 0 Влажная (без луж) +15° -
04:00 +16.1° Ю 4 - 10 км - облачно 748 755 -0.7 90% +14.5° 600 м - - - -
01:00 +16.8° Ю 4 - 20 км - облачно 749 755 +0.2 90% +15.2° 600 м - - - -
Вторник, 20 Июня
Время местн. Темп Ветер Видим Явления Облачность нижн/средн/верх Атм. давл. Влжн Точка росы ВНГО R Сост. почвы Tg s
Напр Скр Прв ур.ст ур.м изм
22:00 +17.3° Ю 4 12 20 км - облачно 748 755 +1.4 88% +15.3° 600 м - - - -
19:00 +19.6° Ю 4 10 20 км - облачно с прояснениями 747 754 -0.1 81% +16.3° 600 м 0 - - -
16:00 +23.3° Ю,Ю-З 4 - 20 км - облачно с прояснениями 747 754 -0.8 72% +18° более 2.5 км - - - -